sensor_id;sensor_type;location;lat;lon;timestamp;P1;durP1;ratioP1;P2;durP2;ratioP2
20474;SDS011;10396;51.724;23.090;2022-07-29T00:02:24;10.70;;;3.65;;
20474;SDS011;10396;51.724;23.090;2022-07-29T00:04:51;11.35;;;4.50;;
20474;SDS011;10396;51.724;23.090;2022-07-29T00:07:19;11.63;;;4.50;;
20474;SDS011;10396;51.724;23.090;2022-07-29T00:09:47;9.98;;;3.85;;
20474;SDS011;10396;51.724;23.090;2022-07-29T00:12:15;9.50;;;3.28;;
20474;SDS011;10396;51.724;23.090;2022-07-29T00:14:43;7.45;;;3.05;;
20474;SDS011;10396;51.724;23.090;2022-07-29T00:17:11;6.78;;;3.00;;
20474;SDS011;10396;51.724;23.090;2022-07-29T00:19:38;9.48;;;3.20;;
20474;SDS011;10396;51.724;23.090;2022-07-29T00:22:06;8.50;;;3.30;;
20474;SDS011;10396;51.724;23.090;2022-07-29T00:24:33;9.73;;;3.22;;
20474;SDS011;10396;51.724;23.090;2022-07-29T00:27:01;10.30;;;3.30;;
20474;SDS011;10396;51.724;23.090;2022-07-29T00:29:30;6.35;;;2.90;;
20474;SDS011;10396;51.724;23.090;2022-07-29T00:31:57;8.82;;;3.50;;
20474;SDS011;10396;51.724;23.090;2022-07-29T00:34:25;10.02;;;3.70;;
20474;SDS011;10396;51.724;23.090;2022-07-29T00:37:10;11.90;;;4.80;;
20474;SDS011;10396;51.724;23.090;2022-07-29T00:39:37;11.05;;;4.95;;
20474;SDS011;10396;51.724;23.090;2022-07-29T00:42:05;11.95;;;4.80;;
20474;SDS011;10396;51.724;23.090;2022-07-29T00:44:37;9.82;;;4.20;;
20474;SDS011;10396;51.724;23.090;2022-07-29T00:47:05;9.55;;;3.90;;
20474;SDS011;10396;51.724;23.090;2022-07-29T00:49:33;10.07;;;3.92;;
20474;SDS011;10396;51.724;23.090;2022-07-29T00:52:01;9.73;;;3.80;;
20474;SDS011;10396;51.724;23.090;2022-07-29T00:54:29;9.18;;;3.67;;
20474;SDS011;10396;51.724;23.090;2022-07-29T00:56:56;9.43;;;3.67;;
20474;SDS011;10396;51.724;23.090;2022-07-29T00:59:25;9.35;;;3.88;;
20474;SDS011;10396;51.724;23.090;2022-07-29T01:01:54;11.02;;;4.03;;
20474;SDS011;10396;51.724;23.090;2022-07-29T01:04:22;11.48;;;5.43;;
20474;SDS011;10396;51.724;23.090;2022-07-29T01:06:49;15.00;;;4.78;;
20474;SDS011;10396;51.724;23.090;2022-07-29T01:09:18;10.90;;;4.70;;
20474;SDS011;10396;51.724;23.090;2022-07-29T01:11:45;13.52;;;4.90;;
20474;SDS011;10396;51.724;23.090;2022-07-29T01:14:14;13.20;;;4.78;;
20474;SDS011;10396;51.724;23.090;2022-07-29T01:16:44;9.45;;;4.10;;
20474;SDS011;10396;51.724;23.090;2022-07-29T01:19:19;11.30;;;4.25;;
20474;SDS011;10396;51.724;23.090;2022-07-29T01:21:57;9.48;;;3.90;;
20474;SDS011;10396;51.724;23.090;2022-07-29T01:24:39;10.45;;;4.05;;
20474;SDS011;10396;51.724;23.090;2022-07-29T01:27:26;10.05;;;4.25;;
20474;SDS011;10396;51.724;23.090;2022-07-29T01:30:06;9.75;;;4.18;;
20474;SDS011;10396;51.724;23.090;2022-07-29T01:32:35;12.23;;;5.63;;
20474;SDS011;10396;51.724;23.090;2022-07-29T01:35:03;13.40;;;5.15;;
20474;SDS011;10396;51.724;23.090;2022-07-29T01:37:35;13.10;;;5.65;;
20474;SDS011;10396;51.724;23.090;2022-07-29T01:40:05;11.50;;;4.93;;
20474;SDS011;10396;51.724;23.090;2022-07-29T01:42:38;10.20;;;4.22;;
20474;SDS011;10396;51.724;23.090;2022-07-29T01:45:12;11.82;;;4.00;;
20474;SDS011;10396;51.724;23.090;2022-07-29T01:47:45;11.88;;;4.80;;
20474;SDS011;10396;51.724;23.090;2022-07-29T01:50:16;10.95;;;4.32;;
20474;SDS011;10396;51.724;23.090;2022-07-29T01:52:46;12.60;;;4.60;;
20474;SDS011;10396;51.724;23.090;2022-07-29T01:55:16;12.05;;;4.40;;
20474;SDS011;10396;51.724;23.090;2022-07-29T01:57:45;11.73;;;4.25;;
20474;SDS011;10396;51.724;23.090;2022-07-29T02:00:15;10.25;;;4.30;;
20474;SDS011;10396;51.724;23.090;2022-07-29T02:02:44;11.43;;;5.25;;
20474;SDS011;10396;51.724;23.090;2022-07-29T02:05:13;10.57;;;4.82;;
20474;SDS011;10396;51.724;23.090;2022-07-29T02:07:43;13.02;;;4.93;;
20474;SDS011;10396;51.724;23.090;2022-07-29T02:10:11;10.57;;;4.97;;
20474;SDS011;10396;51.724;23.090;2022-07-29T02:12:40;12.13;;;5.00;;
20474;SDS011;10396;51.724;23.090;2022-07-29T02:15:08;10.88;;;4.40;;
20474;SDS011;10396;51.724;23.090;2022-07-29T02:17:39;8.80;;;3.97;;
20474;SDS011;10396;51.724;23.090;2022-07-29T02:20:09;9.35;;;4.50;;
20474;SDS011;10396;51.724;23.090;2022-07-29T02:22:37;11.45;;;4.30;;
20474;SDS011;10396;51.724;23.090;2022-07-29T02:25:05;10.15;;;4.20;;
20474;SDS011;10396;51.724;23.090;2022-07-29T02:27:34;8.32;;;3.90;;
20474;SDS011;10396;51.724;23.090;2022-07-29T02:30:03;9.70;;;4.20;;
20474;SDS011;10396;51.724;23.090;2022-07-29T02:32:31;10.63;;;4.05;;
20474;SDS011;10396;51.724;23.090;2022-07-29T02:35:03;10.35;;;4.40;;
20474;SDS011;10396;51.724;23.090;2022-07-29T02:37:32;8.73;;;4.10;;
20474;SDS011;10396;51.724;23.090;2022-07-29T02:39:59;9.50;;;3.88;;
20474;SDS011;10396;51.724;23.090;2022-07-29T02:42:27;13.60;;;4.20;;
20474;SDS011;10396;51.724;23.090;2022-07-29T02:44:55;11.27;;;4.00;;
20474;SDS011;10396;51.724;23.090;2022-07-29T02:47:24;12.02;;;4.28;;
20474;SDS011;10396;51.724;23.090;2022-07-29T02:49:59;11.57;;;4.45;;
20474;SDS011;10396;51.724;23.090;2022-07-29T02:52:31;9.32;;;3.80;;
20474;SDS011;10396;51.724;23.090;2022-07-29T02:55:05;11.07;;;4.15;;
20474;SDS011;10396;51.724;23.090;2022-07-29T02:57:41;7.65;;;3.53;;
20474;SDS011;10396;51.724;23.090;2022-07-29T03:00:11;7.25;;;3.40;;
20474;SDS011;10396;51.724;23.090;2022-07-29T03:02:39;13.48;;;6.88;;
20474;SDS011;10396;51.724;23.090;2022-07-29T03:05:10;9.77;;;4.00;;
20474;SDS011;10396;51.724;23.090;2022-07-29T03:07:43;8.40;;;4.00;;
20474;SDS011;10396;51.724;23.090;2022-07-29T03:10:12;8.60;;;3.80;;
20474;SDS011;10396;51.724;23.090;2022-07-29T03:12:40;9.23;;;3.85;;
20474;SDS011;10396;51.724;23.090;2022-07-29T03:15:09;8.52;;;3.42;;
20474;SDS011;10396;51.724;23.090;2022-07-29T03:17:36;6.75;;;3.30;;
20474;SDS011;10396;51.724;23.090;2022-07-29T03:20:05;9.35;;;4.05;;
20474;SDS011;10396;51.724;23.090;2022-07-29T03:22:37;8.93;;;3.95;;
20474;SDS011;10396;51.724;23.090;2022-07-29T03:25:10;9.45;;;3.75;;
20474;SDS011;10396;51.724;23.090;2022-07-29T03:27:39;14.93;;;6.05;;
20474;SDS011;10396;51.724;23.090;2022-07-29T03:30:07;13.10;;;4.20;;
20474;SDS011;10396;51.724;23.090;2022-07-29T03:32:36;6.50;;;3.10;;
20474;SDS011;10396;51.724;23.090;2022-07-29T03:35:04;6.90;;;3.20;;
20474;SDS011;10396;51.724;23.090;2022-07-29T03:37:32;9.50;;;3.50;;
20474;SDS011;10396;51.724;23.090;2022-07-29T03:40:02;8.35;;;4.00;;
20474;SDS011;10396;51.724;23.090;2022-07-29T03:42:32;9.73;;;3.60;;
20474;SDS011;10396;51.724;23.090;2022-07-29T03:45:01;9.55;;;3.25;;
20474;SDS011;10396;51.724;23.090;2022-07-29T03:47:32;9.32;;;3.88;;
20474;SDS011;10396;51.724;23.090;2022-07-29T03:50:04;10.32;;;4.00;;
20474;SDS011;10396;51.724;23.090;2022-07-29T03:52:33;6.70;;;3.47;;
20474;SDS011;10396;51.724;23.090;2022-07-29T03:55:01;9.90;;;3.67;;
20474;SDS011;10396;51.724;23.090;2022-07-29T03:57:28;9.57;;;3.50;;
20474;SDS011;10396;51.724;23.090;2022-07-29T03:59:59;13.65;;;3.92;;
20474;SDS011;10396;51.724;23.090;2022-07-29T04:02:28;8.65;;;3.90;;
20474;SDS011;10396;51.724;23.090;2022-07-29T04:04:56;14.00;;;4.40;;
20474;SDS011;10396;51.724;23.090;2022-07-29T04:07:23;11.10;;;4.40;;
20474;SDS011;10396;51.724;23.090;2022-07-29T04:09:51;9.30;;;4.07;;
20474;SDS011;10396;51.724;23.090;2022-07-29T04:12:18;8.07;;;4.05;;
20474;SDS011;10396;51.724;23.090;2022-07-29T04:14:47;8.45;;;3.88;;
20474;SDS011;10396;51.724;23.090;2022-07-29T04:17:15;10.65;;;3.90;;
20474;SDS011;10396;51.724;23.090;2022-07-29T04:19:43;9.18;;;4.30;;
20474;SDS011;10396;51.724;23.090;2022-07-29T04:22:10;9.85;;;3.83;;
20474;SDS011;10396;51.724;23.090;2022-07-29T04:24:38;9.25;;;4.00;;
20474;SDS011;10396;51.724;23.090;2022-07-29T04:27:05;9.20;;;4.15;;
20474;SDS011;10396;51.724;23.090;2022-07-29T04:29:33;10.88;;;4.63;;
20474;SDS011;10396;51.724;23.090;2022-07-29T04:32:02;10.25;;;4.70;;
20474;SDS011;10396;51.724;23.090;2022-07-29T04:34:30;9.23;;;4.40;;
20474;SDS011;10396;51.724;23.090;2022-07-29T04:36:58;10.45;;;4.72;;
20474;SDS011;10396;51.724;23.090;2022-07-29T04:39:25;16.00;;;5.47;;
20474;SDS011;10396;51.724;23.090;2022-07-29T04:41:53;11.13;;;5.07;;
20474;SDS011;10396;51.724;23.090;2022-07-29T04:44:20;9.65;;;4.78;;
20474;SDS011;10396;51.724;23.090;2022-07-29T04:46:48;9.15;;;4.63;;
20474;SDS011;10396;51.724;23.090;2022-07-29T04:49:17;11.85;;;5.53;;
20474;SDS011;10396;51.724;23.090;2022-07-29T04:51:44;11.52;;;5.18;;
20474;SDS011;10396;51.724;23.090;2022-07-29T04:54:12;12.00;;;5.25;;
20474;SDS011;10396;51.724;23.090;2022-07-29T04:56:39;12.05;;;5.00;;
20474;SDS011;10396;51.724;23.090;2022-07-29T04:59:07;11.23;;;5.20;;
20474;SDS011;10396;51.724;23.090;2022-07-29T05:01:34;10.80;;;5.03;;
20474;SDS011;10396;51.724;23.090;2022-07-29T05:04:02;11.75;;;4.97;;
20474;SDS011;10396;51.724;23.090;2022-07-29T05:06:31;12.02;;;4.95;;
20474;SDS011;10396;51.724;23.090;2022-07-29T05:08:59;10.68;;;4.50;;
20474;SDS011;10396;51.724;23.090;2022-07-29T05:11:26;11.63;;;4.70;;
20474;SDS011;10396;51.724;23.090;2022-07-29T05:13:53;11.23;;;4.78;;
20474;SDS011;10396;51.724;23.090;2022-07-29T05:16:21;34.47;;;23.05;;
20474;SDS011;10396;51.724;23.090;2022-07-29T05:18:48;37.92;;;23.33;;
20474;SDS011;10396;51.724;23.090;2022-07-29T05:21:16;14.20;;;7.45;;
20474;SDS011;10396;51.724;23.090;2022-07-29T05:23:45;10.13;;;4.18;;
20474;SDS011;10396;51.724;23.090;2022-07-29T05:26:12;10.40;;;3.88;;
20474;SDS011;10396;51.724;23.090;2022-07-29T05:28:40;10.90;;;4.60;;
20474;SDS011;10396;51.724;23.090;2022-07-29T05:31:07;12.98;;;6.25;;
20474;SDS011;10396;51.724;23.090;2022-07-29T05:33:35;10.98;;;4.35;;
20474;SDS011;10396;51.724;23.090;2022-07-29T05:36:03;9.60;;;4.32;;
20474;SDS011;10396;51.724;23.090;2022-07-29T05:38:32;11.55;;;4.43;;
20474;SDS011;10396;51.724;23.090;2022-07-29T05:41:01;9.65;;;4.22;;
20474;SDS011;10396;51.724;23.090;2022-07-29T05:43:28;8.80;;;3.95;;
20474;SDS011;10396;51.724;23.090;2022-07-29T05:45:56;12.45;;;5.03;;
20474;SDS011;10396;51.724;23.090;2022-07-29T05:48:24;16.40;;;7.28;;
20474;SDS011;10396;51.724;23.090;2022-07-29T05:50:51;41.75;;;29.00;;
20474;SDS011;10396;51.724;23.090;2022-07-29T05:53:19;68.15;;;55.53;;
20474;SDS011;10396;51.724;23.090;2022-07-29T05:55:47;27.67;;;21.60;;
20474;SDS011;10396;51.724;23.090;2022-07-29T05:58:16;11.45;;;6.07;;
20474;SDS011;10396;51.724;23.090;2022-07-29T06:00:44;11.30;;;4.68;;
20474;SDS011;10396;51.724;23.090;2022-07-29T06:03:11;10.30;;;3.90;;
20474;SDS011;10396;51.724;23.090;2022-07-29T06:05:39;8.95;;;3.60;;
20474;SDS011;10396;51.724;23.090;2022-07-29T06:08:06;8.98;;;3.40;;
20474;SDS011;10396;51.724;23.090;2022-07-29T06:10:34;10.98;;;3.30;;
20474;SDS011;10396;51.724;23.090;2022-07-29T06:13:01;10.98;;;3.20;;
20474;SDS011;10396;51.724;23.090;2022-07-29T06:15:31;7.85;;;3.00;;
20474;SDS011;10396;51.724;23.090;2022-07-29T06:17:58;8.80;;;2.90;;
20474;SDS011;10396;51.724;23.090;2022-07-29T06:20:26;7.88;;;3.20;;
20474;SDS011;10396;51.724;23.090;2022-07-29T06:22:55;8.10;;;3.10;;
20474;SDS011;10396;51.724;23.090;2022-07-29T06:25:22;8.50;;;2.83;;
20474;SDS011;10396;51.724;23.090;2022-07-29T06:27:50;7.72;;;2.90;;
20474;SDS011;10396;51.724;23.090;2022-07-29T06:30:18;9.80;;;3.05;;
20474;SDS011;10396;51.724;23.090;2022-07-29T06:32:47;8.07;;;2.97;;
20474;SDS011;10396;51.724;23.090;2022-07-29T06:35:14;7.22;;;2.88;;
20474;SDS011;10396;51.724;23.090;2022-07-29T06:37:42;8.00;;;3.05;;
20474;SDS011;10396;51.724;23.090;2022-07-29T06:40:10;6.30;;;2.67;;
20474;SDS011;10396;51.724;23.090;2022-07-29T06:42:55;6.40;;;2.95;;
20474;SDS011;10396;51.724;23.090;2022-07-29T06:45:23;7.95;;;2.65;;
20474;SDS011;10396;51.724;23.090;2022-07-29T06:47:52;7.60;;;2.50;;
20474;SDS011;10396;51.724;23.090;2022-07-29T06:50:20;3.60;;;2.10;;
20474;SDS011;10396;51.724;23.090;2022-07-29T06:52:47;4.43;;;2.20;;
20474;SDS011;10396;51.724;23.090;2022-07-29T06:55:15;5.97;;;2.58;;
20474;SDS011;10396;51.724;23.090;2022-07-29T06:57:45;5.85;;;2.30;;
20474;SDS011;10396;51.724;23.090;2022-07-29T07:00:12;4.30;;;2.25;;
20474;SDS011;10396;51.724;23.090;2022-07-29T07:02:40;4.50;;;2.20;;
20474;SDS011;10396;51.724;23.090;2022-07-29T07:05:10;6.35;;;2.50;;
20474;SDS011;10396;51.724;23.090;2022-07-29T07:07:37;7.45;;;2.50;;
20474;SDS011;10396;51.724;23.090;2022-07-29T07:10:05;5.28;;;2.33;;
20474;SDS011;10396;51.724;23.090;2022-07-29T07:12:33;6.57;;;2.30;;
20474;SDS011;10396;51.724;23.090;2022-07-29T07:15:00;4.93;;;2.35;;
20474;SDS011;10396;51.724;23.090;2022-07-29T07:17:28;5.30;;;2.25;;
20474;SDS011;10396;51.724;23.090;2022-07-29T07:19:56;4.32;;;2.38;;
20474;SDS011;10396;51.724;23.090;2022-07-29T07:22:25;4.70;;;2.30;;
20474;SDS011;10396;51.724;23.090;2022-07-29T07:24:52;7.53;;;2.30;;
20474;SDS011;10396;51.724;23.090;2022-07-29T07:27:20;9.27;;;2.40;;
20474;SDS011;10396;51.724;23.090;2022-07-29T07:29:47;5.18;;;2.30;;
20474;SDS011;10396;51.724;23.090;2022-07-29T07:32:15;7.60;;;2.33;;
20474;SDS011;10396;51.724;23.090;2022-07-29T07:34:43;6.38;;;2.22;;
20474;SDS011;10396;51.724;23.090;2022-07-29T07:37:10;4.40;;;2.15;;
20474;SDS011;10396;51.724;23.090;2022-07-29T07:39:39;5.13;;;2.20;;
20474;SDS011;10396;51.724;23.090;2022-07-29T07:42:07;4.22;;;2.17;;
20474;SDS011;10396;51.724;23.090;2022-07-29T07:44:36;6.93;;;2.28;;
20474;SDS011;10396;51.724;23.090;2022-07-29T07:47:04;4.63;;;2.13;;
20474;SDS011;10396;51.724;23.090;2022-07-29T07:49:32;4.85;;;2.15;;
20474;SDS011;10396;51.724;23.090;2022-07-29T07:52:00;5.55;;;2.00;;
20474;SDS011;10396;51.724;23.090;2022-07-29T07:54:27;5.53;;;2.10;;
20474;SDS011;10396;51.724;23.090;2022-07-29T07:56:56;5.03;;;1.90;;
20474;SDS011;10396;51.724;23.090;2022-07-29T07:59:24;4.25;;;1.85;;
20474;SDS011;10396;51.724;23.090;2022-07-29T08:01:51;5.32;;;1.92;;
20474;SDS011;10396;51.724;23.090;2022-07-29T08:04:19;3.55;;;1.60;;
20474;SDS011;10396;51.724;23.090;2022-07-29T08:06:46;4.07;;;1.70;;
20474;SDS011;10396;51.724;23.090;2022-07-29T08:09:15;4.60;;;1.90;;
20474;SDS011;10396;51.724;23.090;2022-07-29T08:11:42;3.42;;;1.80;;
20474;SDS011;10396;51.724;23.090;2022-07-29T08:14:11;3.25;;;1.85;;
20474;SDS011;10396;51.724;23.090;2022-07-29T08:16:39;4.90;;;2.00;;
20474;SDS011;10396;51.724;23.090;2022-07-29T08:19:07;4.40;;;2.17;;
20474;SDS011;10396;51.724;23.090;2022-07-29T08:21:34;4.18;;;1.70;;
20474;SDS011;10396;51.724;23.090;2022-07-29T08:24:02;4.30;;;1.60;;
20474;SDS011;10396;51.724;23.090;2022-07-29T08:26:47;4.03;;;1.90;;
20474;SDS011;10396;51.724;23.090;2022-07-29T08:29:16;4.70;;;1.48;;
20474;SDS011;10396;51.724;23.090;2022-07-29T08:31:44;3.03;;;1.60;;
20474;SDS011;10396;51.724;23.090;2022-07-29T08:34:12;3.63;;;1.60;;
20474;SDS011;10396;51.724;23.090;2022-07-29T08:36:39;2.50;;;1.60;;
20474;SDS011;10396;51.724;23.090;2022-07-29T08:39:07;4.30;;;1.60;;
20474;SDS011;10396;51.724;23.090;2022-07-29T08:41:35;2.90;;;1.50;;
20474;SDS011;10396;51.724;23.090;2022-07-29T08:44:02;2.80;;;1.35;;
20474;SDS011;10396;51.724;23.090;2022-07-29T08:46:32;4.95;;;1.98;;
20474;SDS011;10396;51.724;23.090;2022-07-29T08:49:01;5.20;;;1.70;;
20474;SDS011;10396;51.724;23.090;2022-07-29T08:51:28;5.60;;;1.55;;
20474;SDS011;10396;51.724;23.090;2022-07-29T08:53:57;2.47;;;1.40;;
20474;SDS011;10396;51.724;23.090;2022-07-29T08:56:25;3.47;;;1.40;;
20474;SDS011;10396;51.724;23.090;2022-07-29T08:58:53;6.72;;;1.60;;
20474;SDS011;10396;51.724;23.090;2022-07-29T09:01:21;3.83;;;1.50;;
20474;SDS011;10396;51.724;23.090;2022-07-29T09:03:51;3.95;;;1.50;;
20474;SDS011;10396;51.724;23.090;2022-07-29T09:06:22;2.75;;;1.58;;
20474;SDS011;10396;51.724;23.090;2022-07-29T09:08:53;6.38;;;1.70;;
20474;SDS011;10396;51.724;23.090;2022-07-29T09:11:21;1.92;;;1.42;;
20474;SDS011;10396;51.724;23.090;2022-07-29T09:13:49;4.22;;;1.60;;
20474;SDS011;10396;51.724;23.090;2022-07-29T09:16:17;4.10;;;1.60;;
20474;SDS011;10396;51.724;23.090;2022-07-29T09:18:45;4.57;;;1.50;;
20474;SDS011;10396;51.724;23.090;2022-07-29T09:21:15;5.10;;;1.70;;
20474;SDS011;10396;51.724;23.090;2022-07-29T09:24:02;2.92;;;1.50;;
20474;SDS011;10396;51.724;23.090;2022-07-29T09:26:32;1.92;;;1.40;;
20474;SDS011;10396;51.724;23.090;2022-07-29T09:29:07;3.15;;;1.40;;
20474;SDS011;10396;51.724;23.090;2022-07-29T09:31:37;4.10;;;1.60;;
20474;SDS011;10396;51.724;23.090;2022-07-29T09:34:06;5.40;;;1.50;;
20474;SDS011;10396;51.724;23.090;2022-07-29T09:36:42;4.75;;;1.60;;
20474;SDS011;10396;51.724;23.090;2022-07-29T09:39:11;3.53;;;1.58;;
20474;SDS011;10396;51.724;23.090;2022-07-29T09:41:46;6.65;;;1.67;;
20474;SDS011;10396;51.724;23.090;2022-07-29T09:44:14;2.58;;;1.48;;
20474;SDS011;10396;51.724;23.090;2022-07-29T09:46:55;5.00;;;1.63;;
20474;SDS011;10396;51.724;23.090;2022-07-29T09:49:24;4.32;;;1.50;;
20474;SDS011;10396;51.724;23.090;2022-07-29T09:52:00;5.70;;;1.50;;
20474;SDS011;10396;51.724;23.090;2022-07-29T09:54:30;4.95;;;1.40;;
20474;SDS011;10396;51.724;23.090;2022-07-29T09:57:02;4.32;;;1.40;;
20474;SDS011;10396;51.724;23.090;2022-07-29T09:59:31;2.88;;;1.50;;
20474;SDS011;10396;51.724;23.090;2022-07-29T10:01:59;3.03;;;1.30;;
20474;SDS011;10396;51.724;23.090;2022-07-29T10:04:36;5.13;;;1.50;;
20474;SDS011;10396;51.724;23.090;2022-07-29T10:07:07;2.25;;;1.40;;
20474;SDS011;10396;51.724;23.090;2022-07-29T10:09:34;3.55;;;1.33;;
20474;SDS011;10396;51.724;23.090;2022-07-29T10:12:04;3.60;;;1.55;;
20474;SDS011;10396;51.724;23.090;2022-07-29T10:14:33;3.75;;;1.58;;
20474;SDS011;10396;51.724;23.090;2022-07-29T10:17:00;6.38;;;1.33;;
20474;SDS011;10396;51.724;23.090;2022-07-29T10:19:28;63.70;;;4.22;;
20474;SDS011;10396;51.724;23.090;2022-07-29T10:21:57;12.88;;;1.75;;
20474;SDS011;10396;51.724;23.090;2022-07-29T10:24:27;50.03;;;3.90;;
20474;SDS011;10396;51.724;23.090;2022-07-29T10:26:55;11.18;;;1.58;;
20474;SDS011;10396;51.724;23.090;2022-07-29T10:29:24;9.75;;;1.50;;
20474;SDS011;10396;51.724;23.090;2022-07-29T10:31:54;4.05;;;1.33;;
20474;SDS011;10396;51.724;23.090;2022-07-29T10:34:31;2.55;;;1.50;;
20474;SDS011;10396;51.724;23.090;2022-07-29T10:37:06;3.63;;;1.40;;
20474;SDS011;10396;51.724;23.090;2022-07-29T10:39:45;1.80;;;1.30;;
20474;SDS011;10396;51.724;23.090;2022-07-29T10:42:20;6.15;;;1.27;;
20474;SDS011;10396;51.724;23.090;2022-07-29T10:44:50;2.22;;;1.20;;
20474;SDS011;10396;51.724;23.090;2022-07-29T10:47:21;2.13;;;1.13;;
20474;SDS011;10396;51.724;23.090;2022-07-29T10:49:58;6.50;;;1.50;;
20474;SDS011;10396;51.724;23.090;2022-07-29T10:55:34;4.03;;;1.25;;
20474;SDS011;10396;51.724;23.090;2022-07-29T10:58:12;2.17;;;1.23;;
20474;SDS011;10396;51.724;23.090;2022-07-29T11:00:40;3.90;;;1.27;;
20474;SDS011;10396;51.724;23.090;2022-07-29T11:03:08;2.63;;;1.10;;
20474;SDS011;10396;51.724;23.090;2022-07-29T11:05:52;1.92;;;1.20;;
20474;SDS011;10396;51.724;23.090;2022-07-29T11:08:22;3.50;;;1.40;;
20474;SDS011;10396;51.724;23.090;2022-07-29T11:10:53;3.78;;;1.10;;
20474;SDS011;10396;51.724;23.090;2022-07-29T11:13:55;9.07;;;1.40;;
20474;SDS011;10396;51.724;23.090;2022-07-29T11:16:22;1.88;;;1.20;;
20474;SDS011;10396;51.724;23.090;2022-07-29T11:21:47;4.93;;;1.70;;
20474;SDS011;10396;51.724;23.090;2022-07-29T11:24:15;6.65;;;1.40;;
20474;SDS011;10396;51.724;23.090;2022-07-29T11:26:46;6.82;;;1.33;;
20474;SDS011;10396;51.724;23.090;2022-07-29T11:29:34;2.38;;;1.20;;
20474;SDS011;10396;51.724;23.090;2022-07-29T11:32:08;5.28;;;1.30;;
20474;SDS011;10396;51.724;23.090;2022-07-29T11:34:37;3.50;;;1.55;;
20474;SDS011;10396;51.724;23.090;2022-07-29T11:37:16;3.13;;;1.60;;
20474;SDS011;10396;51.724;23.090;2022-07-29T11:39:45;4.20;;;1.40;;
20474;SDS011;10396;51.724;23.090;2022-07-29T11:45:09;2.38;;;1.17;;
20474;SDS011;10396;51.724;23.090;2022-07-29T11:47:39;2.28;;;1.30;;
20474;SDS011;10396;51.724;23.090;2022-07-29T11:50:08;2.42;;;1.30;;
20474;SDS011;10396;51.724;23.090;2022-07-29T11:52:37;2.85;;;1.60;;
20474;SDS011;10396;51.724;23.090;2022-07-29T11:55:11;3.35;;;1.40;;
20474;SDS011;10396;51.724;23.090;2022-07-29T11:57:49;2.15;;;1.20;;
20474;SDS011;10396;51.724;23.090;2022-07-29T12:00:22;1.90;;;1.20;;
20474;SDS011;10396;51.724;23.090;2022-07-29T12:02:51;3.33;;;1.40;;
20474;SDS011;10396;51.724;23.090;2022-07-29T12:05:19;2.30;;;1.40;;
20474;SDS011;10396;51.724;23.090;2022-07-29T12:07:47;3.80;;;1.33;;
20474;SDS011;10396;51.724;23.090;2022-07-29T12:10:15;2.97;;;1.40;;
20474;SDS011;10396;51.724;23.090;2022-07-29T12:12:43;3.92;;;1.40;;
20474;SDS011;10396;51.724;23.090;2022-07-29T12:15:19;3.53;;;1.55;;
20474;SDS011;10396;51.724;23.090;2022-07-29T12:17:49;2.67;;;1.10;;
20474;SDS011;10396;51.724;23.090;2022-07-29T12:20:21;1.85;;;1.23;;
20474;SDS011;10396;51.724;23.090;2022-07-29T12:22:50;5.25;;;1.30;;
20474;SDS011;10396;51.724;23.090;2022-07-29T12:25:19;1.05;;;1.05;;
20474;SDS011;10396;51.724;23.090;2022-07-29T12:27:47;2.63;;;1.38;;
20474;SDS011;10396;51.724;23.090;2022-07-29T12:30:40;2.58;;;1.33;;
20474;SDS011;10396;51.724;23.090;2022-07-29T12:33:12;2.03;;;1.30;;
20474;SDS011;10396;51.724;23.090;2022-07-29T12:35:42;3.88;;;1.45;;
20474;SDS011;10396;51.724;23.090;2022-07-29T12:38:10;5.95;;;1.50;;
20474;SDS011;10396;51.724;23.090;2022-07-29T12:40:38;3.03;;;1.20;;
20474;SDS011;10396;51.724;23.090;2022-07-29T12:43:10;1.58;;;1.25;;
20474;SDS011;10396;51.724;23.090;2022-07-29T12:45:40;3.00;;;1.38;;
20474;SDS011;10396;51.724;23.090;2022-07-29T12:48:09;3.40;;;1.23;;
20474;SDS011;10396;51.724;23.090;2022-07-29T12:50:36;4.07;;;1.40;;
20474;SDS011;10396;51.724;23.090;2022-07-29T12:53:19;1.80;;;1.30;;
20474;SDS011;10396;51.724;23.090;2022-07-29T12:55:47;3.67;;;1.52;;
20474;SDS011;10396;51.724;23.090;2022-07-29T12:58:28;2.80;;;1.30;;
20474;SDS011;10396;51.724;23.090;2022-07-29T13:01:00;6.22;;;1.30;;
20474;SDS011;10396;51.724;23.090;2022-07-29T13:03:29;2.88;;;1.48;;
20474;SDS011;10396;51.724;23.090;2022-07-29T13:09:00;2.80;;;1.40;;
20474;SDS011;10396;51.724;23.090;2022-07-29T13:11:29;2.17;;;1.20;;
20474;SDS011;10396;51.724;23.090;2022-07-29T13:13:58;2.42;;;1.40;;
20474;SDS011;10396;51.724;23.090;2022-07-29T13:16:26;4.57;;;1.30;;
20474;SDS011;10396;51.724;23.090;2022-07-29T13:19:04;4.13;;;1.40;;
20474;SDS011;10396;51.724;23.090;2022-07-29T13:21:33;6.05;;;2.70;;
20474;SDS011;10396;51.724;23.090;2022-07-29T13:24:00;6.22;;;1.95;;
20474;SDS011;10396;51.724;23.090;2022-07-29T13:26:28;5.05;;;1.88;;
20474;SDS011;10396;51.724;23.090;2022-07-29T13:28:56;2.92;;;1.50;;
20474;SDS011;10396;51.724;23.090;2022-07-29T13:31:25;3.95;;;1.40;;
20474;SDS011;10396;51.724;23.090;2022-07-29T13:33:53;2.83;;;1.30;;
20474;SDS011;10396;51.724;23.090;2022-07-29T13:36:21;2.65;;;1.40;;
20474;SDS011;10396;51.724;23.090;2022-07-29T13:38:49;2.75;;;1.23;;
20474;SDS011;10396;51.724;23.090;2022-07-29T13:41:17;2.22;;;1.20;;
20474;SDS011;10396;51.724;23.090;2022-07-29T13:43:44;3.05;;;1.48;;
20474;SDS011;10396;51.724;23.090;2022-07-29T13:46:12;4.20;;;1.30;;
20474;SDS011;10396;51.724;23.090;2022-07-29T13:48:41;3.03;;;1.45;;
20474;SDS011;10396;51.724;23.090;2022-07-29T13:51:09;4.60;;;1.13;;
20474;SDS011;10396;51.724;23.090;2022-07-29T13:53:36;4.20;;;2.05;;
20474;SDS011;10396;51.724;23.090;2022-07-29T13:56:04;4.07;;;1.13;;
20474;SDS011;10396;51.724;23.090;2022-07-29T13:58:32;2.38;;;1.20;;
20474;SDS011;10396;51.724;23.090;2022-07-29T14:01:00;4.03;;;1.50;;
20474;SDS011;10396;51.724;23.090;2022-07-29T14:03:27;2.28;;;1.30;;
20474;SDS011;10396;51.724;23.090;2022-07-29T14:05:56;1.95;;;1.10;;
20474;SDS011;10396;51.724;23.090;2022-07-29T14:08:25;2.58;;;1.52;;
20474;SDS011;10396;51.724;23.090;2022-07-29T14:10:53;2.65;;;1.23;;
20474;SDS011;10396;51.724;23.090;2022-07-29T14:13:20;2.70;;;1.20;;
20474;SDS011;10396;51.724;23.090;2022-07-29T14:15:48;1.30;;;1.10;;
20474;SDS011;10396;51.724;23.090;2022-07-29T14:18:16;3.17;;;1.20;;
20474;SDS011;10396;51.724;23.090;2022-07-29T14:20:43;3.47;;;1.60;;
20474;SDS011;10396;51.724;23.090;2022-07-29T14:23:12;2.33;;;1.35;;
20474;SDS011;10396;51.724;23.090;2022-07-29T14:25:39;3.30;;;1.80;;
20474;SDS011;10396;51.724;23.090;2022-07-29T14:28:07;5.95;;;2.13;;
20474;SDS011;10396;51.724;23.090;2022-07-29T14:30:34;2.25;;;1.10;;
20474;SDS011;10396;51.724;23.090;2022-07-29T14:33:02;2.67;;;1.10;;
20474;SDS011;10396;51.724;23.090;2022-07-29T14:35:29;2.47;;;1.35;;
20474;SDS011;10396;51.724;23.090;2022-07-29T14:37:57;3.08;;;1.40;;
20474;SDS011;10396;51.724;23.090;2022-07-29T14:40:26;6.85;;;1.40;;
20474;SDS011;10396;51.724;23.090;2022-07-29T14:42:53;1.65;;;1.25;;
20474;SDS011;10396;51.724;23.090;2022-07-29T14:45:21;4.30;;;1.30;;
20474;SDS011;10396;51.724;23.090;2022-07-29T14:47:49;3.05;;;1.30;;
20474;SDS011;10396;51.724;23.090;2022-07-29T14:50:16;3.92;;;1.40;;
20474;SDS011;10396;51.724;23.090;2022-07-29T14:52:45;1.30;;;1.20;;
20474;SDS011;10396;51.724;23.090;2022-07-29T14:55:12;1.48;;;1.27;;
20474;SDS011;10396;51.724;23.090;2022-07-29T14:57:41;3.53;;;1.40;;